• Join FlightAware (Why Join?)
  • Login
  • US Flag 
12:31AM EDT


 

Airport Tracker/Info


-or-


 

Live Flight TrackerFlight Track Log ✈ EJA102 ✈ 26-Jun-2013 ✈ KHPN - KRKD

Flight Track Log - Related Links

Times and Time Zones

All times are in EDT time to prevent confusion due to time zone crossing. See the EJA102 flight status page for this flight to view local times or setup timezone preferences in your user account.

Time Position Orientation Groundspeed Altitude Reporting Facility
EDT Latitude Longitude Course Direction KTS MPH feet Rate Location/Type
01:57PM 41.1100 -73.8422 North 196 226 5,500  Level Boston Center
01:58PM 41.1489 -73.8872 319° Northwest 221 254 7,300 2,580 Climbing Boston Center
01:59PM 41.2003 -73.7836 57° Northeast 233 268 10,700 2,340 Climbing Boston Center
02:00PM 41.2039 -73.6567 88° East 315 362 12,000 540 Climbing Boston Center
02:01PM 41.5227 -73.2380 56° Northeast  Level FlightAware Approximate
02:01PM 41.2592 -73.5419 57° Northeast 361 415 12,000  Level Boston Center
02:02PM 41.5846 -73.1397 48° Northeast  Level FlightAware Approximate
02:02PM 41.3517 -73.4494 37° Northeast 366 421 13,500  Level Boston Center
02:03PM 41.6717 -73.1000 North  Level FlightAware Approximate
02:03PM 41.4464 -73.3511 38° Northeast 387 445 15,700  Level Boston Center
02:04PM 41.5264 -73.2581 41° Northeast 382 440 17,700 1,920 Climbing Boston Center
02:05PM 41.6019 -73.1647 43° Northeast 369 425 19,600 1,380 Climbing Boston Center
02:06PM 41.6919 -73.1239 19° North 349 402 20,500 720 Climbing Boston Center
02:07PM 41.7875 -73.1333 356° North 329 379 21,200 720 Climbing Boston Center
02:08PM 41.9125 -73.1569 352° North 346 398 22,100 960 Climbing Boston Center
02:09PM 42.0208 -73.1750 353° North 378 435 23,200 1,200 Climbing Boston Center
02:10PM 42.1333 -73.1903 354° North 397 457 24,600 1,440 Climbing Boston Center
02:11PM 42.2356 -73.1439 19° North 390 449 26,100 1,200 Climbing Boston Center
02:12PM 42.3175 -73.0297 46° Northeast 392 451 27,000 420 Climbing Boston Center
02:13PM 42.3681 -72.9206 58° Northeast 447 514 27,000  Level Boston Center
02:14PM 42.4333 -72.7747 59° Northeast 442 509 27,000  Level Boston Center
02:15PM 42.5211 -72.5922 57° Northeast 463 533 27,000  Level Boston Center
02:16PM 42.5942 -72.4372 57° Northeast 482 555 27,000  Level Boston Center
02:17PM 42.6669 -72.2961 55° Northeast 487 560 27,000  Level Boston Center
02:18PM 42.7417 -72.1206 60° Northeast 487 560 27,000  Level Boston Center
02:19PM 42.8161 -71.9589 58° Northeast 487 560 27,000  Level Boston Center
02:20PM 42.8906 -71.7969 58° Northeast 492 566 27,000  Level Boston Center
02:21PM 42.9644 -71.6344 58° Northeast 497 572 27,000  Level Boston Center
02:22PM 43.0444 -71.4600 58° Northeast 502 578 27,000  Level Boston Center
02:23PM 43.1197 -71.2881 59° Northeast 502 578 27,000  Level Boston Center
02:24PM 43.1953 -71.1244 58° Northeast 514 592 27,000 -480 Level Boston Center
02:25PM 43.2600 -70.9775 59° Northeast 506 582 26,100 -1,680 Descending Boston Center
02:26PM 43.3289 -70.8189 59° Northeast 495 570 23,700 -2,340 Descending Boston Center
02:27PM 43.3953 -70.6656 59° Northeast 478 550 21,500 -1,920 Descending Boston Center
02:28PM 43.4597 -70.5178 59° Northeast 466 536 19,900 -1,740 Descending Boston Center
02:29PM 43.5236 -70.3669 60° Northeast 435 501 18,100 -1,620 Descending Boston Center
02:30PM 43.5797 -70.2417 58° Northeast 420 483 16,700 -1,800 Descending Boston Center
02:31PM 43.6414 -70.0989 59° Northeast 409 471 14,600 -2,160 Descending Boston Center
02:32PM 43.6931 -69.9733 60° Northeast 383 441 12,400 -2,040 Descending Boston Center
02:33PM 43.7386 -69.8711 58° Northeast 339 390 10,600 -1,800 Descending Boston Center
02:34PM 43.7803 -69.7744 59° Northeast 292 336 8,900 -1,500 Descending Boston Center
02:35PM 43.8197 -69.6775 61° Northeast 286 329 7,700 -1,440 Descending Boston Center
02:36PM 43.8572 -69.5922 59° Northeast 267 307 6,100 -1,440 Descending Boston Center
02:37PM 43.8906 -69.5100 61° Northeast 247 284 4,900 -1,440 Descending Boston Center
02:38PM 43.9242 -69.4364 58° Northeast 229 264 3,300 -1,200 Descending Boston Center
02:39PM 43.9772 -69.3961 29° Northeast 213 245 2,500 -420 Descending Boston Center
02:40PM 44.0367 -69.3642 21° North 223 257 2,500  Level Boston Center
02:41PM 44.0881 -69.3356 22° Northeast 211 243 2,500  Level Boston Center
02:42PM 44.1031 -69.2683 73° East 170 196 2,500 -300 Level Boston Center
02:43PM 44.0978 -69.2281 100° East 134 154 1,900 -600 Descending Boston Center
02:45PM 44.0601 -69.0993 65° Northeast  Level Estimated
02:52PM 44.0601 -69.0993 65° Northeast  Level Estimated